Time;durP1;ratioP1;P1;durP2;ratioP2;P2;SDS_P1;SDS_P2;PMS_P1;PMS_P2;Temp;Humidity;BMP_temperature;BMP_pressure;BME280_temperature;BME280_humidity;BME280_pressure;Samples;Min_cycle;Max_cycle;Signal;HPM_P1;HPM_P2
2022/03/14 00:01:09;;;;;;;3.70;2.90;;;12.40;99.90;;;;;;5049548;28;20300;-84
2022/03/14 00:03:50;;;;;;;3.53;2.93;;;12.40;99.90;;;;;;5067277;28;20319;-85
2022/03/14 00:06:18;;;;;;;3.70;2.80;;;12.40;99.90;;;;;;5072898;28;20931;-88
2022/03/14 00:08:45;;;;;;;3.80;2.77;;;12.40;99.90;;;;;;5055617;28;20207;-84
2022/03/14 00:11:15;;;;;;;4.07;2.90;;;12.40;99.90;;;;;;5072838;28;20223;-85
2022/03/14 00:13:44;;;;;;;4.03;3.00;;;12.40;99.90;;;;;;5067494;28;20745;-85
2022/03/14 00:16:17;;;;;;;3.30;2.80;;;12.40;99.90;;;;;;5076027;28;20273;-85
2022/03/14 00:18:48;;;;;;;3.93;3.27;;;12.30;99.90;;;;;;5082203;28;20191;-85
2022/03/14 00:21:15;;;;;;;4.13;2.97;;;12.30;99.90;;;;;;5070700;28;20208;-85
2022/03/14 00:23:43;;;;;;;6.73;2.60;;;12.30;99.90;;;;;;5074070;28;20210;-86
2022/03/14 00:26:10;;;;;;;4.93;2.73;;;12.30;99.90;;;;;;5051609;28;20227;-85
2022/03/14 00:28:39;;;;;;;3.20;2.67;;;12.30;99.90;;;;;;5066666;28;20201;-85
2022/03/14 00:31:05;;;;;;;4.83;3.00;;;12.30;99.90;;;;;;5044510;28;20732;-84
2022/03/14 00:33:32;;;;;;;3.00;2.30;;;12.30;99.90;;;;;;5051338;28;20226;-87
2022/03/14 00:35:59;;;;;;;4.10;2.23;;;12.30;99.90;;;;;;5069412;28;20204;-83
2022/03/14 00:38:27;;;;;;;4.73;2.57;;;12.20;99.90;;;;;;5067602;28;20786;-86
2022/03/14 00:40:54;;;;;;;3.07;2.30;;;12.20;99.90;;;;;;5067864;28;20212;-85
2022/03/14 00:43:21;;;;;;;2.23;1.77;;;12.20;99.90;;;;;;5067871;28;20283;-86
2022/03/14 00:45:48;;;;;;;2.63;2.20;;;12.20;99.90;;;;;;5069518;28;20557;-86
2022/03/14 00:48:15;;;;;;;3.60;2.30;;;12.10;99.90;;;;;;5052565;28;20875;-86
2022/03/14 00:50:42;;;;;;;2.37;1.83;;;12.10;99.90;;;;;;5069004;28;20313;-89
2022/03/14 00:53:09;;;;;;;2.00;1.80;;;12.10;99.90;;;;;;5069939;28;20239;-85
2022/03/14 00:55:37;;;;;;;3.00;2.07;;;12.10;99.90;;;;;;5044799;28;20320;-85
2022/03/14 00:58:04;;;;;;;2.90;2.20;;;12.20;99.90;;;;;;5048770;28;20211;-83
2022/03/14 01:00:37;;;;;;;3.07;2.03;;;12.20;99.90;;;;;;5047889;28;20243;-83
2022/03/14 01:03:04;;;;;;;2.47;1.57;;;12.20;99.90;;;;;;5045573;28;20300;-85
2022/03/14 01:05:31;;;;;;;1.60;1.50;;;12.20;99.90;;;;;;5048055;28;21018;-86
2022/03/14 01:07:58;;;;;;;1.87;1.60;;;12.20;99.90;;;;;;5044214;28;20346;-85
2022/03/14 01:10:25;;;;;;;1.73;1.60;;;12.20;99.90;;;;;;5030834;28;20205;-84
2022/03/14 01:12:52;;;;;;;1.97;1.60;;;12.30;99.90;;;;;;5045075;28;20242;-87
2022/03/14 01:15:19;;;;;;;2.37;1.60;;;12.20;99.90;;;;;;5047147;28;20221;-86
2022/03/14 01:17:46;;;;;;;2.27;1.60;;;12.20;99.90;;;;;;5014053;28;20287;-85
2022/03/14 01:20:13;;;;;;;2.30;1.70;;;12.20;99.90;;;;;;5044811;28;20647;-85
2022/03/14 01:22:41;;;;;;;2.00;1.80;;;12.20;99.90;;;;;;5045174;28;20653;-85
2022/03/14 01:25:07;;;;;;;2.10;1.60;;;12.20;99.90;;;;;;5047248;28;20197;-85
2022/03/14 01:27:34;;;;;;;2.10;1.77;;;12.20;99.90;;;;;;5046146;28;20221;-85
2022/03/14 01:30:01;;;;;;;2.80;2.00;;;12.20;99.90;;;;;;5045635;28;20258;-85
2022/03/14 01:32:28;;;;;;;2.20;1.80;;;12.20;99.90;;;;;;5064380;28;20215;-85
2022/03/14 01:34:55;;;;;;;2.37;1.70;;;12.20;99.90;;;;;;5070386;28;20482;-87
2022/03/14 01:37:22;;;;;;;1.70;1.60;;;12.20;99.90;;;;;;5055790;28;20240;-87
2022/03/14 01:39:49;;;;;;;2.37;1.80;;;12.20;99.90;;;;;;5070780;28;20193;-85
2022/03/14 01:42:21;;;;;;;1.93;1.67;;;12.20;99.90;;;;;;5069868;28;20193;-86
2022/03/14 01:44:48;;;;;;;2.37;1.90;;;12.20;99.90;;;;;;5057800;28;20564;-85
2022/03/14 01:47:20;;;;;;;3.73;1.93;;;12.20;99.90;;;;;;5066528;28;20571;-86
2022/03/14 01:49:49;;;;;;;3.50;1.90;;;12.20;99.90;;;;;;5059682;28;20212;-85
2022/03/14 01:52:16;;;;;;;2.27;1.93;;;12.10;99.90;;;;;;5047653;28;20307;-85
2022/03/14 01:54:44;;;;;;;2.00;1.80;;;12.00;99.90;;;;;;5046433;28;20267;-84
2022/03/14 01:57:13;;;;;;;3.33;1.87;;;12.00;99.90;;;;;;5029226;28;20734;-85
2022/03/14 01:59:40;;;;;;;3.23;1.83;;;12.00;99.90;;;;;;5038287;28;20220;-84
2022/03/14 02:02:07;;;;;;;1.90;1.70;;;12.00;99.90;;;;;;5043978;28;20342;-86
2022/03/14 02:04:36;;;;;;;2.53;1.90;;;12.00;99.90;;;;;;5046475;28;20296;-85
2022/03/14 02:07:04;;;;;;;3.03;1.97;;;12.00;99.90;;;;;;5032306;28;20235;-84
2022/03/14 02:09:31;;;;;;;2.20;1.63;;;11.90;99.90;;;;;;5048315;28;20656;-85
2022/03/14 02:11:58;;;;;;;2.40;1.80;;;11.90;99.90;;;;;;5020462;28;20680;-85
2022/03/14 02:14:25;;;;;;;2.00;1.67;;;11.90;99.90;;;;;;5029555;28;20231;-87
2022/03/14 02:16:52;;;;;;;3.13;1.80;;;11.90;99.90;;;;;;5044642;28;20688;-85
2022/03/14 02:19:20;;;;;;;2.37;1.87;;;12.00;99.90;;;;;;5026654;28;20621;-84
2022/03/14 02:21:47;;;;;;;1.90;1.60;;;12.00;99.90;;;;;;5029857;28;20215;-85
2022/03/14 02:24:14;;;;;;;2.17;1.93;;;12.00;99.90;;;;;;5050766;28;20207;-85
2022/03/14 02:26:43;;;;;;;1.80;1.60;;;12.00;99.90;;;;;;5031585;28;20446;-85
2022/03/14 02:29:14;;;;;;;2.23;1.70;;;12.00;99.90;;;;;;5031592;28;20223;-86
2022/03/14 02:31:42;;;;;;;2.60;1.70;;;12.00;99.90;;;;;;5034311;28;20274;-85
2022/03/14 02:34:09;;;;;;;2.00;1.80;;;12.00;99.90;;;;;;5050123;28;20312;-86
2022/03/14 02:36:39;;;;;;;2.70;1.87;;;12.00;99.90;;;;;;5049669;28;20247;-85
2022/03/14 02:39:07;;;;;;;5.50;1.70;;;12.00;99.90;;;;;;5033613;28;20202;-85
2022/03/14 02:41:34;;;;;;;2.20;1.70;;;12.00;99.90;;;;;;5050827;28;20208;-84
2022/03/14 02:44:06;;;;;;;2.27;1.93;;;11.90;99.90;;;;;;5050209;28;20215;-85
2022/03/14 02:46:39;;;;;;;4.13;1.90;;;11.90;99.90;;;;;;5037763;28;20224;-84
2022/03/14 02:49:07;;;;;;;2.00;1.80;;;11.90;99.90;;;;;;5060291;28;20235;-86
2022/03/14 02:51:38;;;;;;;2.93;2.10;;;11.90;99.90;;;;;;5051656;28;20256;-87
2022/03/14 02:54:09;;;;;;;3.17;1.80;;;11.90;99.90;;;;;;5062065;28;20272;-85
2022/03/14 02:56:40;;;;;;;2.77;1.90;;;11.80;99.90;;;;;;5056253;28;20286;-86
2022/03/14 02:59:08;;;;;;;4.77;2.00;;;11.90;99.90;;;;;;5051672;28;20270;-85
2022/03/14 03:01:35;;;;;;;2.20;2.00;;;11.90;99.90;;;;;;5045610;28;20269;-85
2022/03/14 03:04:04;;;;;;;3.30;1.83;;;11.80;99.90;;;;;;5034447;28;20259;-85
2022/03/14 03:06:33;;;;;;;2.90;2.23;;;11.80;99.90;;;;;;5030147;28;20255;-85
2022/03/14 03:09:03;;;;;;;2.77;2.20;;;11.90;99.90;;;;;;5052369;28;20223;-85
2022/03/14 03:11:33;;;;;;;2.83;2.30;;;11.80;99.90;;;;;;5051802;28;20200;-85
2022/03/14 03:14:01;;;;;;;3.20;2.50;;;11.80;99.90;;;;;;5037491;28;20313;-86
2022/03/14 03:16:35;;;;;;;3.17;2.30;;;11.80;99.90;;;;;;5037455;28;20212;-85
2022/03/14 03:19:03;;;;;;;3.00;2.33;;;11.80;99.90;;;;;;5045363;28;20235;-86
2022/03/14 03:21:34;;;;;;;2.37;2.00;;;11.80;99.90;;;;;;5055657;28;20245;-85
2022/03/14 03:24:01;;;;;;;3.67;2.53;;;11.80;99.90;;;;;;5045775;28;20203;-85
2022/03/14 03:26:28;;;;;;;3.20;2.47;;;11.80;99.90;;;;;;5044226;28;20671;-86
2022/03/14 03:28:55;;;;;;;3.40;2.40;;;11.70;99.90;;;;;;5039440;28;20671;-86
2022/03/14 03:31:24;;;;;;;2.70;2.20;;;11.70;99.90;;;;;;5039592;28;20309;-84
2022/03/14 03:33:51;;;;;;;3.80;2.97;;;11.70;99.90;;;;;;5051617;28;20212;-86
2022/03/14 03:36:18;;;;;;;3.97;2.97;;;11.70;99.90;;;;;;5046908;28;20217;-85
2022/03/14 03:38:45;;;;;;;5.07;2.97;;;11.70;99.90;;;;;;5037231;28;20274;-85
2022/03/14 03:41:12;;;;;;;4.10;3.23;;;11.70;99.90;;;;;;5032673;28;20607;-83
2022/03/14 03:43:39;;;;;;;2.93;2.60;;;11.70;99.90;;;;;;5033272;28;20243;-86
2022/03/14 03:46:06;;;;;;;3.77;2.70;;;11.60;99.90;;;;;;5038191;28;20287;-85
2022/03/14 03:48:36;;;;;;;3.80;3.07;;;11.60;99.90;;;;;;5044705;28;20321;-86
2022/03/14 03:51:03;;;;;;;3.90;2.93;;;11.60;99.90;;;;;;5044477;28;20215;-85
2022/03/14 03:53:30;;;;;;;5.53;3.00;;;11.60;99.90;;;;;;5033532;28;20254;-85
2022/03/14 03:55:57;;;;;;;3.53;2.90;;;11.70;99.90;;;;;;5036256;28;20263;-86
2022/03/14 03:58:24;;;;;;;3.57;2.90;;;11.60;99.90;;;;;;5031003;28;20211;-86
2022/03/14 04:00:51;;;;;;;3.20;2.63;;;11.50;99.90;;;;;;5048316;28;20678;-86
2022/03/14 04:03:21;;;;;;;3.73;2.70;;;11.50;99.90;;;;;;5032941;28;20214;-86
2022/03/14 04:05:49;;;;;;;5.00;3.13;;;11.60;99.90;;;;;;5044693;28;20215;-85
2022/03/14 04:08:17;;;;;;;3.30;2.70;;;11.60;99.90;;;;;;5047779;28;20346;-85
2022/03/14 04:10:44;;;;;;;4.57;3.43;;;11.50;99.90;;;;;;5036212;28;20224;-85
2022/03/14 04:13:12;;;;;;;4.37;3.00;;;11.50;99.90;;;;;;5046483;28;20254;-84
2022/03/14 04:16:01;;;;;;;3.97;3.20;;;11.50;99.90;;;;;;5048658;28;20239;-84
2022/03/14 04:18:27;;;;;;;4.23;3.07;;;11.60;99.90;;;;;;5048221;28;21041;-84
2022/03/14 04:20:55;;;;;;;3.97;3.23;;;11.50;99.90;;;;;;5045531;28;20867;-85
2022/03/14 04:23:24;;;;;;;5.13;3.50;;;11.50;99.90;;;;;;5036264;28;20284;-84
2022/03/14 04:25:51;;;;;;;4.33;3.40;;;11.50;99.90;;;;;;5046270;28;20323;-85
2022/03/14 04:28:18;;;;;;;3.53;2.97;;;11.50;99.90;;;;;;5032061;28;20327;-86
2022/03/14 04:30:45;;;;;;;4.83;3.40;;;11.50;99.90;;;;;;5048051;28;20285;-85
2022/03/14 04:33:12;;;;;;;4.33;3.10;;;11.40;99.90;;;;;;5045596;28;20211;-85
2022/03/14 04:35:39;;;;;;;4.03;3.60;;;11.40;99.90;;;;;;5034491;28;20256;-85
2022/03/14 04:38:07;;;;;;;4.83;3.80;;;11.40;99.90;;;;;;5047194;28;20694;-85
2022/03/14 04:40:35;;;;;;;4.37;3.47;;;11.30;99.90;;;;;;5044666;28;20208;-85
2022/03/14 04:43:10;;;;;;;4.50;3.30;;;11.30;99.90;;;;;;5029008;28;20196;-84
2022/03/14 04:45:38;;;;;;;5.80;3.50;;;11.30;99.90;;;;;;5025779;28;20702;-85
2022/03/14 04:48:09;;;;;;;4.27;3.47;;;11.30;99.90;;;;;;5048831;28;20280;-85
2022/03/14 04:50:36;;;;;;;5.50;3.47;;;11.30;99.90;;;;;;5049331;28;20628;-84
2022/03/14 04:53:04;;;;;;;4.90;3.57;;;11.30;99.90;;;;;;5040309;28;20216;-84
2022/03/14 04:55:36;;;;;;;5.93;3.40;;;11.30;99.90;;;;;;5052477;28;20283;-84
2022/03/14 04:58:04;;;;;;;5.37;3.77;;;11.30;99.90;;;;;;5030952;28;20207;-87
2022/03/14 05:00:33;;;;;;;5.43;3.77;;;11.20;99.90;;;;;;5047737;28;20305;-86
2022/03/14 05:03:01;;;;;;;4.90;3.73;;;11.20;99.90;;;;;;5050524;28;20282;-86
2022/03/14 05:05:30;;;;;;;5.37;3.90;;;11.20;99.90;;;;;;5027237;28;20592;-85
2022/03/14 05:07:57;;;;;;;6.87;3.77;;;11.20;99.90;;;;;;5050072;28;20254;-86
2022/03/14 05:10:24;;;;;;;6.27;4.03;;;11.30;99.90;;;;;;5031081;28;20777;-85
2022/03/14 05:12:52;;;;;;;5.90;3.90;;;11.10;99.90;;;;;;5037091;28;20287;-87
2022/03/14 05:15:19;;;;;;;5.47;3.87;;;11.10;99.90;;;;;;5031394;28;20306;-86
2022/03/14 05:17:47;;;;;;;5.70;3.93;;;11.10;99.90;;;;;;5049209;28;20319;-85
2022/03/14 05:20:14;;;;;;;6.10;3.93;;;11.10;99.90;;;;;;5030789;28;20292;-85
2022/03/14 05:22:46;;;;;;;4.90;3.80;;;11.00;99.90;;;;;;5045867;28;20262;-86
2022/03/14 05:25:13;;;;;;;6.13;4.60;;;11.00;99.90;;;;;;5053084;28;20226;-86
2022/03/14 05:27:41;;;;;;;5.20;3.93;;;11.00;99.90;;;;;;5047907;28;20289;-88
2022/03/14 05:30:09;;;;;;;5.83;4.27;;;11.00;99.90;;;;;;5048061;28;20206;-84
2022/03/14 05:32:36;;;;;;;5.70;4.07;;;11.00;99.90;;;;;;5027556;28;20301;-85
2022/03/14 05:35:04;;;;;;;5.00;4.00;;;10.90;99.90;;;;;;5046258;28;20207;-86
2022/03/14 05:37:31;;;;;;;5.37;4.00;;;11.00;99.90;;;;;;5049003;28;20301;-85
2022/03/14 05:39:58;;;;;;;5.27;3.67;;;11.00;99.90;;;;;;5048056;28;20218;-86
2022/03/14 05:42:26;;;;;;;5.53;3.80;;;11.10;99.90;;;;;;5027100;28;20249;-86
2022/03/14 05:44:53;;;;;;;7.27;4.70;;;10.90;99.90;;;;;;5029931;28;20654;-86
2022/03/14 05:47:20;;;;;;;5.00;4.47;;;10.80;99.90;;;;;;5031542;28;20231;-84
2022/03/14 05:49:47;;;;;;;6.13;5.17;;;10.70;99.90;;;;;;5051179;28;20255;-85
2022/03/14 05:52:14;;;;;;;8.20;5.50;;;10.70;99.90;;;;;;5058827;28;20706;-86
2022/03/14 05:54:41;;;;;;;7.27;5.50;;;10.60;99.90;;;;;;5074461;28;20611;-85
2022/03/14 05:57:08;;;;;;;8.10;6.17;;;10.60;99.90;;;;;;5052279;28;20238;-86
2022/03/14 05:59:34;;;;;;;11.20;6.93;;;10.50;99.90;;;;;;5072618;28;20204;-85
2022/03/14 06:02:01;;;;;;;10.87;7.00;;;10.40;99.90;;;;;;5050058;28;20277;-86
2022/03/14 06:04:28;;;;;;;9.93;6.87;;;10.40;99.90;;;;;;5064030;28;20212;-86
2022/03/14 06:06:56;;;;;;;10.37;6.80;;;10.40;99.90;;;;;;5056352;28;20289;-85
2022/03/14 06:09:25;;;;;;;13.03;7.67;;;10.30;99.90;;;;;;5053665;28;20229;-85
2022/03/14 06:11:58;;;;;;;10.53;7.40;;;10.30;99.90;;;;;;5067312;28;20205;-84
2022/03/14 06:14:25;;;;;;;11.73;7.70;;;10.30;99.90;;;;;;5054311;28;20281;-87
2022/03/14 06:16:51;;;;;;;11.27;8.03;;;10.20;99.90;;;;;;5057006;28;20622;-86
2022/03/14 06:19:18;;;;;;;14.50;8.57;;;10.10;99.90;;;;;;5070382;28;20208;-86
2022/03/14 06:21:45;;;;;;;14.47;9.33;;;10.10;99.90;;;;;;5074381;28;20369;-86
2022/03/14 06:24:12;;;;;;;13.83;8.93;;;10.20;99.90;;;;;;5067386;28;20292;-86
2022/03/14 06:26:38;;;;;;;14.07;8.77;;;10.10;99.90;;;;;;5055232;28;20602;-85
2022/03/14 06:29:05;;;;;;;13.80;9.30;;;10.10;99.90;;;;;;5066213;28;20274;-85
2022/03/14 06:31:33;;;;;;;13.90;9.37;;;10.10;99.90;;;;;;5074216;28;20209;-88
2022/03/14 06:34:01;;;;;;;15.40;9.07;;;10.00;99.90;;;;;;5053308;28;20208;-87
2022/03/14 06:36:28;;;;;;;15.47;10.07;;;10.10;99.90;;;;;;5067004;28;20293;-89
2022/03/14 06:38:59;;;;;;;16.97;9.93;;;10.10;99.90;;;;;;5066690;28;20227;-87
2022/03/14 06:41:27;;;;;;;15.10;9.67;;;10.20;99.90;;;;;;5049972;28;20360;-87
2022/03/14 06:43:56;;;;;;;16.43;10.30;;;10.00;99.90;;;;;;5054936;28;20194;-87
2022/03/14 06:46:23;;;;;;;17.97;10.10;;;10.00;99.90;;;;;;5072732;28;20286;-86
2022/03/14 06:48:50;;;;;;;14.80;10.07;;;10.10;99.90;;;;;;5068624;28;20228;-86
2022/03/14 06:51:17;;;;;;;18.23;11.00;;;10.20;99.90;;;;;;5055463;28;20280;-87
2022/03/14 06:53:44;;;;;;;15.53;10.33;;;10.20;99.90;;;;;;5068803;28;20238;-87
2022/03/14 06:56:13;;;;;;;15.23;9.87;;;10.20;99.90;;;;;;5063323;28;20225;-87
2022/03/14 06:58:39;;;;;;;18.60;11.40;;;10.20;99.90;;;;;;5051671;28;20209;-87
2022/03/14 07:01:06;;;;;;;17.30;10.57;;;10.10;99.90;;;;;;5068434;28;20256;-89
2022/03/14 07:03:33;;;;;;;16.47;10.33;;;10.20;99.90;;;;;;5067344;28;20287;-87
2022/03/14 07:06:02;;;;;;;19.47;12.23;;;10.20;99.90;;;;;;5068027;28;20300;-88
2022/03/14 07:08:29;;;;;;;18.70;11.83;;;10.20;99.90;;;;;;5047601;28;20226;-89
2022/03/14 07:10:56;;;;;;;20.60;12.53;;;10.20;99.90;;;;;;5050964;28;20704;-87
2022/03/14 07:13:23;;;;;;;23.83;14.10;;;10.20;99.90;;;;;;5034947;28;20301;-88
2022/03/14 07:15:50;;;;;;;22.47;13.67;;;10.20;99.90;;;;;;5057863;28;20222;-87
2022/03/14 07:18:17;;;;;;;26.00;15.23;;;10.10;99.90;;;;;;5070123;28;20233;-88
2022/03/14 07:20:44;;;;;;;21.70;13.30;;;10.10;99.90;;;;;;5057606;28;20228;-89
2022/03/14 07:23:11;;;;;;;27.03;15.50;;;10.20;99.90;;;;;;5059183;28;20266;-87
2022/03/14 07:25:39;;;;;;;23.00;15.50;;;10.20;99.90;;;;;;5050876;28;20214;-86
2022/03/14 07:28:07;;;;;;;26.63;14.73;;;10.20;99.90;;;;;;5058495;28;20306;-85
2022/03/14 07:30:40;;;;;;;24.83;15.10;;;10.20;99.90;;;;;;5047335;28;20241;-86
2022/03/14 07:33:07;;;;;;;27.50;15.30;;;10.20;99.90;;;;;;5048232;28;20206;-83
2022/03/14 07:35:35;;;;;;;25.90;15.30;;;10.20;99.90;;;;;;5044652;28;20210;-85
2022/03/14 07:38:03;;;;;;;24.83;15.10;;;10.20;99.90;;;;;;5059674;28;20201;-85
2022/03/14 07:40:32;;;;;;;26.53;15.07;;;10.30;99.90;;;;;;5065214;28;20622;-84
2022/03/14 07:43:01;;;;;;;26.13;15.10;;;10.30;99.90;;;;;;5062234;28;20260;-84
2022/03/14 07:45:28;;;;;;;25.10;15.57;;;10.30;99.90;;;;;;5067110;28;20853;-85
2022/03/14 07:47:57;;;;;;;26.63;15.03;;;10.40;99.90;;;;;;5050219;28;20233;-85
2022/03/14 07:50:25;;;;;;;22.60;14.40;;;10.40;99.90;;;;;;5068248;28;20295;-85
2022/03/14 07:52:53;;;;;;;25.87;14.87;;;10.50;99.90;;;;;;5067223;28;20285;-86
2022/03/14 07:55:19;;;;;;;26.03;15.70;;;10.50;99.90;;;;;;5048204;28;20326;-86
2022/03/14 07:57:46;;;;;;;25.37;14.97;;;10.60;99.90;;;;;;5029760;28;20257;-82
2022/03/14 08:00:16;;;;;;;27.70;15.10;;;10.60;99.90;;;;;;5044417;28;20243;-83
2022/03/14 08:02:43;;;;;;;23.33;14.93;;;10.60;99.90;;;;;;5043656;28;20665;-83
2022/03/14 08:05:16;;;;;;;22.13;14.03;;;10.60;99.90;;;;;;5043536;28;20211;-84
2022/03/14 08:07:45;;;;;;;25.70;14.87;;;10.60;99.90;;;;;;5034409;28;20210;-85
2022/03/14 08:10:14;;;;;;;22.53;14.03;;;10.80;99.90;;;;;;5026107;28;20325;-86
2022/03/14 08:12:49;;;;;;;22.23;14.13;;;10.70;99.90;;;;;;5049097;28;20602;-86
2022/03/14 08:15:28;;;;;;;23.10;13.50;;;10.80;99.90;;;;;;5043076;28;20220;-85
2022/03/14 08:17:59;;;;;;;23.50;14.57;;;10.80;99.90;;;;;;5033643;28;20306;-84
2022/03/14 08:20:27;;;;;;;18.97;13.30;;;10.80;99.90;;;;;;5047816;28;20283;-83
2022/03/14 08:22:57;;;;;;;18.80;13.10;;;10.90;99.90;;;;;;5011895;28;20633;-85
2022/03/14 08:25:24;;;;;;;21.90;14.20;;;10.90;99.90;;;;;;5047548;28;20294;-84
2022/03/14 08:27:51;;;;;;;21.67;13.77;;;10.90;99.90;;;;;;5046176;28;20628;-84
2022/03/14 08:30:22;;;;;;;25.93;13.73;;;11.00;99.90;;;;;;5046240;28;20224;-85
2022/03/14 08:32:53;;;;;;;21.70;13.23;;;10.90;99.90;;;;;;5028599;28;20196;-85
2022/03/14 08:35:20;;;;;;;22.17;13.47;;;11.00;99.90;;;;;;5045659;28;20661;-85
2022/03/14 08:37:50;;;;;;;22.90;13.50;;;11.00;99.90;;;;;;5045189;28;20291;-85
2022/03/14 08:40:25;;;;;;;26.60;14.30;;;11.00;99.90;;;;;;5023211;28;20625;-86
2022/03/14 08:42:54;;;;;;;25.53;14.40;;;11.00;99.90;;;;;;5045016;28;20277;-87
2022/03/14 08:45:22;;;;;;;26.00;15.00;;;11.00;99.90;;;;;;5047683;28;20307;-88
2022/03/14 08:47:49;;;;;;;22.67;14.20;;;11.10;99.90;;;;;;5046680;28;21011;-88
2022/03/14 08:50:17;;;;;;;23.83;13.83;;;11.10;99.90;;;;;;5032651;28;20200;-86
2022/03/14 08:52:45;;;;;;;22.67;14.40;;;11.10;99.90;;;;;;5030262;28;20254;-85
2022/03/14 08:55:14;;;;;;;25.17;14.47;;;11.20;99.90;;;;;;5048614;28;20255;-87
2022/03/14 08:57:42;;;;;;;23.47;14.50;;;11.30;99.90;;;;;;5044425;28;20605;-87
2022/03/14 09:00:11;;;;;;;25.67;14.80;;;11.40;99.90;;;;;;5049537;28;20224;-87
2022/03/14 09:02:38;;;;;;;25.73;15.13;;;11.50;99.90;;;;;;5037826;28;20613;-87
2022/03/14 09:05:07;;;;;;;24.13;14.63;;;11.60;99.90;;;;;;5036079;28;20298;-89
2022/03/14 09:07:33;;;;;;;22.37;14.00;;;11.60;99.90;;;;;;5036751;28;20232;-88
2022/03/14 09:10:07;;;;;;;23.33;14.07;;;11.70;99.90;;;;;;5066222;28;20222;-89
2022/03/14 09:12:38;;;;;;;21.90;12.90;;;11.80;99.90;;;;;;5050061;28;20573;-88
2022/03/14 09:15:07;;;;;;;20.77;13.13;;;11.90;99.90;;;;;;5049420;28;20284;-88
2022/03/14 09:17:44;;;;;;;24.87;15.27;;;12.00;99.90;;;;;;5048030;28;20309;-88
2022/03/14 09:20:12;;;;;;;23.97;13.97;;;11.90;99.90;;;;;;5052048;28;20208;-87
2022/03/14 09:22:43;;;;;;;22.07;13.70;;;12.10;99.90;;;;;;5052596;28;20227;-85
2022/03/14 09:25:12;;;;;;;22.63;13.73;;;12.10;99.90;;;;;;5048471;28;20212;-85
2022/03/14 09:27:40;;;;;;;21.37;13.30;;;12.10;99.90;;;;;;5049917;28;20201;-85
2022/03/14 09:30:08;;;;;;;21.70;13.70;;;12.00;99.90;;;;;;5053507;28;20723;-87
2022/03/14 09:32:34;;;;;;;21.77;13.33;;;12.00;99.90;;;;;;5038554;28;20258;-90
2022/03/14 09:35:03;;;;;;;19.37;13.13;;;12.00;99.90;;;;;;5029345;28;20603;-89
2022/03/14 09:37:31;;;;;;;19.17;12.13;;;12.10;99.90;;;;;;5049571;28;20216;-90
2022/03/14 09:40:00;;;;;;;18.13;11.53;;;12.20;99.90;;;;;;5043414;28;20205;-85
2022/03/14 09:42:28;;;;;;;19.90;11.17;;;12.30;99.90;;;;;;5049688;28;20266;-87
2022/03/14 09:45:00;;;;;;;16.17;11.53;;;12.50;99.90;;;;;;5049096;28;20625;-87
2022/03/14 09:47:35;;;;;;;17.27;10.93;;;12.40;99.90;;;;;;5049449;28;20258;-88
2022/03/14 09:50:13;;;;;;;16.27;11.23;;;12.50;99.90;;;;;;5052515;28;20220;-90
2022/03/14 09:52:42;;;;;;;19.93;11.93;;;12.50;99.90;;;;;;5034602;28;20197;-88
2022/03/14 09:55:11;;;;;;;20.20;11.60;;;12.60;99.90;;;;;;5066810;28;20241;-88
2022/03/14 09:57:41;;;;;;;17.43;11.23;;;12.60;99.90;;;;;;5066355;28;20197;-87
2022/03/14 10:00:13;;;;;;;18.17;11.73;;;12.70;99.90;;;;;;5078531;28;20263;-86
2022/03/14 10:02:42;;;;;;;18.27;11.73;;;12.60;99.90;;;;;;5058054;28;20272;-87
2022/03/14 10:05:11;;;;;;;20.03;11.60;;;12.40;99.90;;;;;;5059188;28;20236;-85
2022/03/14 10:07:45;;;;;;;17.60;11.47;;;12.40;99.90;;;;;;5068899;28;20217;-86
2022/03/14 10:10:14;;;;;;;21.07;11.53;;;12.40;99.90;;;;;;5052222;28;20240;-87
2022/03/14 10:12:43;;;;;;;18.57;11.70;;;12.50;99.90;;;;;;5068061;28;20256;-86
2022/03/14 10:15:15;;;;;;;20.87;11.30;;;12.60;99.90;;;;;;5054085;28;20248;-88
2022/03/14 10:17:42;;;;;;;18.10;11.60;;;12.70;99.90;;;;;;5057564;28;20232;-88
2022/03/14 10:20:09;;;;;;;18.60;11.40;;;12.80;99.90;;;;;;5067877;28;20214;-87
2022/03/14 10:22:39;;;;;;;17.63;11.20;;;12.80;99.90;;;;;;5046743;28;20280;-87
2022/03/14 10:25:13;;;;;;;18.47;11.13;;;12.80;99.90;;;;;;5048831;28;20205;-85
2022/03/14 10:27:45;;;;;;;18.00;11.40;;;13.00;99.90;;;;;;5055306;28;20285;-88
2022/03/14 10:30:26;;;;;;;18.90;10.87;;;13.20;99.90;;;;;;5050088;28;20320;-86
2022/03/14 10:33:11;;;;;;;19.13;11.70;;;13.20;99.90;;;;;;5054522;28;20196;-87
2022/03/14 10:35:42;;;;;;;20.93;11.97;;;13.30;99.90;;;;;;5044650;28;20576;-88
2022/03/14 10:38:11;;;;;;;22.07;13.03;;;13.30;99.90;;;;;;5062715;28;20332;-89
2022/03/14 10:40:42;;;;;;;24.77;13.00;;;13.40;99.90;;;;;;5054209;28;20205;-88
2022/03/14 10:43:30;;;;;;;24.53;13.37;;;13.50;99.90;;;;;;5054529;28;20307;-86
2022/03/14 10:46:04;;;;;;;20.63;12.80;;;13.60;99.90;;;;;;5057943;28;20224;-88
2022/03/14 10:48:43;;;;;;;24.47;13.93;;;13.70;99.90;;;;;;5077216;28;20212;-90
2022/03/14 10:51:14;;;;;;;19.33;11.90;;;13.60;99.90;;;;;;5059457;28;20539;-88
2022/03/14 10:53:43;;;;;;;22.57;11.57;;;13.70;99.90;;;;;;5059575;28;20206;-88
2022/03/14 10:56:10;;;;;;;21.37;13.10;;;13.80;99.90;;;;;;5070131;28;20201;-87
2022/03/14 10:58:39;;;;;;;19.07;11.77;;;13.70;99.90;;;;;;5052299;28;20583;-88
2022/03/14 11:01:08;;;;;;;20.40;12.70;;;13.80;99.90;;;;;;5051547;28;20222;-88
2022/03/14 11:03:39;;;;;;;23.50;12.27;;;14.00;99.90;;;;;;5057381;28;20235;-88
2022/03/14 11:06:14;;;;;;;18.63;11.17;;;14.20;99.90;;;;;;5058720;28;20249;-87
2022/03/14 11:08:48;;;;;;;17.50;11.60;;;14.30;99.90;;;;;;5074397;28;20253;-87
2022/03/14 11:11:25;;;;;;;17.73;11.47;;;14.20;99.90;;;;;;5073001;28;20711;-87
2022/03/14 11:13:57;;;;;;;20.70;11.20;;;14.30;99.90;;;;;;5058333;28;20210;-88
2022/03/14 11:16:29;;;;;;;17.43;11.00;;;14.30;99.90;;;;;;5076952;28;20265;-88
2022/03/14 11:18:57;;;;;;;19.97;11.53;;;14.40;99.90;;;;;;5058898;28;20208;-88
2022/03/14 11:21:31;;;;;;;16.70;10.50;;;14.50;99.90;;;;;;5078134;28;20205;-89
2022/03/14 11:24:00;;;;;;;15.37;9.97;;;14.70;99.90;;;;;;5060690;28;20277;-91
2022/03/14 11:26:30;;;;;;;17.77;9.63;;;14.80;99.90;;;;;;5064881;28;20197;-88
2022/03/14 11:29:01;;;;;;;16.37;9.37;;;14.80;99.90;;;;;;5080678;28;20855;-90
2022/03/14 11:31:35;;;;;;;17.63;9.90;;;15.00;99.90;;;;;;5061954;28;20220;-90
2022/03/14 11:34:03;;;;;;;16.50;9.13;;;14.80;99.90;;;;;;5070646;28;20205;-89
2022/03/14 11:36:32;;;;;;;15.07;9.10;;;14.80;99.90;;;;;;5081132;28;20201;-88
2022/03/14 11:38:59;;;;;;;17.93;10.13;;;14.80;99.90;;;;;;5061879;28;20297;-87
2022/03/14 11:41:27;;;;;;;16.23;9.43;;;14.90;99.90;;;;;;5079344;28;20207;-89
2022/03/14 11:43:54;;;;;;;13.70;8.70;;;14.90;99.90;;;;;;5072839;28;20217;-87
2022/03/14 11:46:37;;;;;;;15.33;8.20;;;14.90;99.90;;;;;;5061249;28;20220;-90
2022/03/14 11:49:16;;;;;;;15.27;9.10;;;15.10;99.90;;;;;;5055835;28;20236;-89
2022/03/14 11:51:44;;;;;;;14.63;8.00;;;15.50;99.90;;;;;;5074698;28;20238;-87
2022/03/14 11:54:13;;;;;;;15.87;8.73;;;15.60;99.90;;;;;;5050192;28;20237;-86
2022/03/14 11:56:57;;;;;;;13.67;7.83;;;15.80;99.90;;;;;;5048846;28;20201;-86
2022/03/14 11:59:31;;;;;;;15.05;7.78;;;16.00;99.90;;;;;;5042891;28;20228;-87
2022/03/14 12:02:00;;;;;;;16.47;8.07;;;16.20;99.90;;;;;;5062214;28;20249;-87
2022/03/14 12:04:30;;;;;;;12.60;7.78;;;16.10;99.90;;;;;;5048648;28;20239;-88
2022/03/14 12:07:00;;;;;;;18.07;8.23;;;15.90;99.90;;;;;;5060323;28;20206;-88
2022/03/14 12:09:27;;;;;;;22.17;7.90;;;15.70;99.90;;;;;;5065868;28;20316;-87
2022/03/14 12:11:55;;;;;;;14.43;7.60;;;15.30;99.90;;;;;;5067071;28;20669;-86
2022/03/14 12:14:47;;;;;;;15.27;7.50;;;15.10;99.90;;;;;;5068490;28;20197;-87
2022/03/14 12:17:14;;;;;;;16.43;7.80;;;15.00;99.90;;;;;;5060772;28;20668;-85
2022/03/14 12:19:48;;;;;;;11.97;7.30;;;14.80;99.90;;;;;;5047038;28;20211;-85
2022/03/14 12:22:39;;;;;;;15.23;8.47;;;14.80;99.90;;;;;;5062562;28;20682;-85
2022/03/14 12:25:08;;;;;;;12.67;6.97;;;14.90;99.90;;;;;;5056096;28;20736;-85
2022/03/14 12:27:39;;;;;;;16.73;6.90;;;14.90;99.90;;;;;;5069573;28;20275;-87
2022/03/14 12:30:20;;;;;;;13.50;6.80;;;15.00;99.90;;;;;;5045718;28;20629;-87
2022/03/14 12:32:49;;;;;;;15.13;8.17;;;15.20;99.90;;;;;;5061707;28;20209;-88
2022/03/14 12:35:16;;;;;;;13.93;8.07;;;15.20;99.90;;;;;;5045688;28;20218;-86
2022/03/14 12:37:52;;;;;;;16.93;8.07;;;15.40;99.90;;;;;;5059786;28;20962;-86
2022/03/14 12:40:19;;;;;;;15.53;7.80;;;15.50;99.90;;;;;;5041988;28;20365;-86
2022/03/14 12:42:51;;;;;;;15.10;8.60;;;15.60;99.90;;;;;;5043704;28;20231;-86
2022/03/14 12:45:36;;;;;;;14.00;8.13;;;15.70;99.90;;;;;;5061047;28;20218;-88
2022/03/14 12:48:21;;;;;;;14.17;8.07;;;15.70;99.90;;;;;;5044239;28;20205;-86